EGGPEGNT

Guest
Details From EGGP - Liverpool John Lennon
To EGNT - Newcastle
Flight Number -
Tags Routegen
Created
Modified
Stats Distance 110 nm / 204 km
Max Altitude 0 ft / 0 m
Waypoints 2
Social Downloads 7
Likes 0
Share VATSIM

Download

Looking for another format? Having issues loading an existing format? Contact us
Advertisement - Login to hide

Notes

None

Route

EGGP EGNT

ID Type Via Altitude (ft/m) Position (lat/lon) Dist (leg/tot) Name
O EGGP APT - 0 / 0 53.33288 / -2.86602 - / 0 nm
O EGNT APT - 0 / 0 55.03353 / -1.70634 109 / 109 nm

Altitude Profile

Advertisement - Login to hide

EGGP

Details ICAO EGGP (LPL)
Name Liverpool John Lennon
Region United Kingdom
Timezone Europe/London (UTC+1.0)
Stats Elevation 81 ft / 25 m (AMSL)
Location 53.333600° -2.849780°
Runways 1
Magnetic Variation 1.541° W

METAR

EGGP 181950Z 12003KT CAVOK 08/05 Q1027

Decode

TAF

TAF EGGP 181656Z 1818/1918 VRB03KT CAVOK TEMPO 1822/1906 8000 BECMG 1912/1915 25010KT BECMG 1915/1918 FEW012 BKN030

Decode

Departure Runways

ID Width Length Bearing (true/mag) Surface Threshold Overrun Markings Lighting
09 148 ft / 45 m 7,478 ft / 2,279 m 85.58° / 87.12° ASPHALT 194 ft / 59 m 0 ft / 0 m UK-PREC-APP CENTERLINE EDGE THRESHOLD CALVERT
27 148 ft / 45 m 7,478 ft / 2,279 m 265.61° / 267.15° ASPHALT 0 ft / 0 m 82 ft / 25 m UK-PREC-APP CENTERLINE EDGE THRESHOLD CALVERT TDZ

EGNT

Details ICAO EGNT (NCL)
Name Newcastle
Region United Kingdom
Timezone Europe/London (UTC+1.0)
Stats Elevation 266 ft / 81 m (AMSL)
Location 55.037900° -1.689810°
Runways 1
Magnetic Variation 1.340° W

METAR

EGNT 181950Z 14002KT CAVOK 05/04 Q1027

Decode

TAF

TAF EGNT 181656Z 1818/1918 VRB03KT CAVOK TEMPO 1822/1906 8000 BECMG 1912/1915 26010KT FEW012 BKN030 TEMPO 1915/1918 8000 -RA BKN012

Decode

Destination Runways

ID Width Length Bearing (true/mag) Surface Threshold Overrun Markings Lighting
07 151 ft / 46 m 7,621 ft / 2,323 m 65.13° / 66.47° ASPHALT 394 ft / 120 m 108 ft / 33 m UK-PREC-APP CENTERLINE EDGE THRESHOLD CALVERT TDZ
25 151 ft / 46 m 7,621 ft / 2,323 m 245.16° / 246.50° ASPHALT 446 ft / 136 m 56 ft / 17 m UK-PREC-APP CENTERLINE EDGE THRESHOLD CALVERT TDZ

Approach Navaids

Runway Type Ident Frequency Range Bearing (true/mag) Slope Elevation
07 LOC-ILS INC 111.50 MHz 18 nm / 33 km 65.18° / 66.52 ° - 297 ft / 91 m (AMSL)
07 GS INC 111.50 MHz 10 nm / 19 km 65.30° / 66.64 ° 3.00° 297 ft / 91 m (AMSL)
07 DME INC 111.50 MHz 18 nm / 33 km - - 256 ft / 78 m (AMSL)
25 DME INWC 111.50 MHz 18 nm / 33 km - - 256 ft / 78 m (AMSL)
25 GS INWC 111.50 MHz 10 nm / 19 km 245.30° / 246.64 ° 3.00° 297 ft / 91 m (AMSL)
25 LOC-ILS INWC 111.50 MHz 18 nm / 33 km 245.12° / 246.46 ° - 279 ft / 85 m (AMSL)

Popular Alternatives